sensor_id;sensor_type;location;lat;lon;timestamp;P1;durP1;ratioP1;P2;durP2;ratioP2
4698;SDS011;33708;49.466;11.176;2024-02-14T00:01:53;14.07;;;9.60;;
4698;SDS011;33708;49.466;11.176;2024-02-14T00:04:18;22.40;;;11.30;;
4698;SDS011;33708;49.466;11.176;2024-02-14T00:06:45;18.40;;;10.60;;
4698;SDS011;33708;49.466;11.176;2024-02-14T00:09:10;17.67;;;9.90;;
4698;SDS011;33708;49.466;11.176;2024-02-14T00:11:36;16.50;;;9.73;;
4698;SDS011;33708;49.466;11.176;2024-02-14T00:14:02;13.83;;;9.07;;
4698;SDS011;33708;49.466;11.176;2024-02-14T00:16:28;14.60;;;9.50;;
4698;SDS011;33708;49.466;11.176;2024-02-14T00:18:57;20.03;;;10.87;;
4698;SDS011;33708;49.466;11.176;2024-02-14T00:21:23;21.20;;;10.67;;
4698;SDS011;33708;49.466;11.176;2024-02-14T00:23:51;16.03;;;9.10;;
4698;SDS011;33708;49.466;11.176;2024-02-14T00:26:17;16.40;;;9.30;;
4698;SDS011;33708;49.466;11.176;2024-02-14T00:28:43;15.97;;;9.57;;
4698;SDS011;33708;49.466;11.176;2024-02-14T00:31:10;14.00;;;8.93;;
4698;SDS011;33708;49.466;11.176;2024-02-14T00:33:36;17.50;;;9.03;;
4698;SDS011;33708;49.466;11.176;2024-02-14T00:36:02;16.83;;;9.40;;
4698;SDS011;33708;49.466;11.176;2024-02-14T00:38:27;17.07;;;10.63;;
4698;SDS011;33708;49.466;11.176;2024-02-14T00:40:53;18.50;;;10.33;;
4698;SDS011;33708;49.466;11.176;2024-02-14T00:43:19;18.80;;;10.10;;
4698;SDS011;33708;49.466;11.176;2024-02-14T00:45:44;18.60;;;11.50;;
4698;SDS011;33708;49.466;11.176;2024-02-14T00:48:10;19.43;;;11.47;;
4698;SDS011;33708;49.466;11.176;2024-02-14T00:50:36;19.43;;;11.00;;
4698;SDS011;33708;49.466;11.176;2024-02-14T00:53:02;20.70;;;9.30;;
4698;SDS011;33708;49.466;11.176;2024-02-14T00:55:28;18.47;;;10.73;;
4698;SDS011;33708;49.466;11.176;2024-02-14T00:57:54;18.37;;;9.60;;
4698;SDS011;33708;49.466;11.176;2024-02-14T01:00:19;15.93;;;9.57;;
4698;SDS011;33708;49.466;11.176;2024-02-14T01:02:45;17.20;;;11.10;;
4698;SDS011;33708;49.466;11.176;2024-02-14T01:05:11;19.50;;;11.43;;
4698;SDS011;33708;49.466;11.176;2024-02-14T01:07:36;17.33;;;9.20;;
4698;SDS011;33708;49.466;11.176;2024-02-14T01:10:02;14.27;;;9.70;;
4698;SDS011;33708;49.466;11.176;2024-02-14T01:12:28;20.77;;;11.93;;
4698;SDS011;33708;49.466;11.176;2024-02-14T01:14:56;16.47;;;9.10;;
4698;SDS011;33708;49.466;11.176;2024-02-14T01:17:23;16.77;;;10.43;;
4698;SDS011;33708;49.466;11.176;2024-02-14T01:19:50;17.80;;;8.50;;
4698;SDS011;33708;49.466;11.176;2024-02-14T01:22:15;14.67;;;9.53;;
4698;SDS011;33708;49.466;11.176;2024-02-14T01:24:44;14.80;;;9.40;;
4698;SDS011;33708;49.466;11.176;2024-02-14T01:27:10;17.30;;;8.87;;
4698;SDS011;33708;49.466;11.176;2024-02-14T01:29:36;19.27;;;10.07;;
4698;SDS011;33708;49.466;11.176;2024-02-14T01:32:01;15.37;;;9.50;;
4698;SDS011;33708;49.466;11.176;2024-02-14T01:34:39;17.03;;;9.70;;
4698;SDS011;33708;49.466;11.176;2024-02-14T01:37:04;19.07;;;10.40;;
4698;SDS011;33708;49.466;11.176;2024-02-14T01:39:31;19.53;;;11.70;;
4698;SDS011;33708;49.466;11.176;2024-02-14T01:41:56;15.20;;;9.10;;
4698;SDS011;33708;49.466;11.176;2024-02-14T01:44:22;15.60;;;8.87;;
4698;SDS011;33708;49.466;11.176;2024-02-14T01:46:48;13.60;;;8.87;;
4698;SDS011;33708;49.466;11.176;2024-02-14T01:49:13;13.73;;;8.60;;
4698;SDS011;33708;49.466;11.176;2024-02-14T01:51:42;14.00;;;9.00;;
4698;SDS011;33708;49.466;11.176;2024-02-14T01:54:10;18.83;;;9.97;;
4698;SDS011;33708;49.466;11.176;2024-02-14T01:56:37;17.00;;;10.13;;
4698;SDS011;33708;49.466;11.176;2024-02-14T01:59:04;15.13;;;9.80;;
4698;SDS011;33708;49.466;11.176;2024-02-14T02:01:33;21.40;;;9.57;;
4698;SDS011;33708;49.466;11.176;2024-02-14T02:03:59;16.53;;;8.50;;
4698;SDS011;33708;49.466;11.176;2024-02-14T02:06:25;16.00;;;8.97;;
4698;SDS011;33708;49.466;11.176;2024-02-14T02:08:51;17.23;;;8.70;;
4698;SDS011;33708;49.466;11.176;2024-02-14T02:11:17;20.33;;;8.77;;
4698;SDS011;33708;49.466;11.176;2024-02-14T02:13:43;17.70;;;9.17;;
4698;SDS011;33708;49.466;11.176;2024-02-14T02:16:08;19.23;;;9.13;;
4698;SDS011;33708;49.466;11.176;2024-02-14T02:18:34;13.27;;;9.30;;
4698;SDS011;33708;49.466;11.176;2024-02-14T02:21:00;17.07;;;9.80;;
4698;SDS011;33708;49.466;11.176;2024-02-14T02:23:28;19.23;;;10.63;;
4698;SDS011;33708;49.466;11.176;2024-02-14T02:25:55;16.33;;;9.47;;
4698;SDS011;33708;49.466;11.176;2024-02-14T02:28:20;15.20;;;10.03;;
4698;SDS011;33708;49.466;11.176;2024-02-14T02:30:46;15.07;;;9.20;;
4698;SDS011;33708;49.466;11.176;2024-02-14T02:33:11;16.13;;;9.80;;
4698;SDS011;33708;49.466;11.176;2024-02-14T02:35:39;17.43;;;9.80;;
4698;SDS011;33708;49.466;11.176;2024-02-14T02:38:07;21.10;;;10.20;;
4698;SDS011;33708;49.466;11.176;2024-02-14T02:40:32;16.50;;;10.10;;
4698;SDS011;33708;49.466;11.176;2024-02-14T02:42:58;16.80;;;9.80;;
4698;SDS011;33708;49.466;11.176;2024-02-14T02:45:25;19.07;;;10.23;;
4698;SDS011;33708;49.466;11.176;2024-02-14T02:47:51;16.47;;;10.33;;
4698;SDS011;33708;49.466;11.176;2024-02-14T02:50:17;19.17;;;10.27;;
4698;SDS011;33708;49.466;11.176;2024-02-14T02:52:43;13.23;;;8.83;;
4698;SDS011;33708;49.466;11.176;2024-02-14T02:55:08;17.10;;;8.67;;
4698;SDS011;33708;49.466;11.176;2024-02-14T02:57:35;13.60;;;6.90;;
4698;SDS011;33708;49.466;11.176;2024-02-14T03:00:02;15.90;;;9.50;;
4698;SDS011;33708;49.466;11.176;2024-02-14T03:02:30;15.70;;;8.83;;
4698;SDS011;33708;49.466;11.176;2024-02-14T03:04:56;12.17;;;7.97;;
4698;SDS011;33708;49.466;11.176;2024-02-14T03:07:22;14.13;;;8.17;;
4698;SDS011;33708;49.466;11.176;2024-02-14T03:09:48;12.53;;;8.50;;
4698;SDS011;33708;49.466;11.176;2024-02-14T03:12:14;17.03;;;8.77;;
4698;SDS011;33708;49.466;11.176;2024-02-14T03:14:41;20.07;;;9.77;;
4698;SDS011;33708;49.466;11.176;2024-02-14T03:17:08;17.07;;;10.53;;
4698;SDS011;33708;49.466;11.176;2024-02-14T03:19:35;14.37;;;9.10;;
4698;SDS011;33708;49.466;11.176;2024-02-14T03:22:04;11.97;;;7.47;;
4698;SDS011;33708;49.466;11.176;2024-02-14T03:24:34;14.00;;;7.53;;
4698;SDS011;33708;49.466;11.176;2024-02-14T03:27:01;9.53;;;6.20;;
4698;SDS011;33708;49.466;11.176;2024-02-14T03:29:29;11.70;;;7.47;;
4698;SDS011;33708;49.466;11.176;2024-02-14T03:31:55;11.63;;;7.33;;
4698;SDS011;33708;49.466;11.176;2024-02-14T03:34:23;11.20;;;7.00;;
4698;SDS011;33708;49.466;11.176;2024-02-14T03:36:50;11.57;;;6.40;;
4698;SDS011;33708;49.466;11.176;2024-02-14T03:39:15;14.50;;;8.50;;
4698;SDS011;33708;49.466;11.176;2024-02-14T03:41:42;10.90;;;6.57;;
4698;SDS011;33708;49.466;11.176;2024-02-14T03:44:07;19.60;;;8.80;;
4698;SDS011;33708;49.466;11.176;2024-02-14T03:46:33;12.00;;;7.83;;
4698;SDS011;33708;49.466;11.176;2024-02-14T03:49:00;12.63;;;7.20;;
4698;SDS011;33708;49.466;11.176;2024-02-14T03:51:26;11.60;;;7.83;;
4698;SDS011;33708;49.466;11.176;2024-02-14T03:53:52;11.47;;;7.60;;
4698;SDS011;33708;49.466;11.176;2024-02-14T03:56:18;17.57;;;8.30;;
4698;SDS011;33708;49.466;11.176;2024-02-14T03:58:43;22.60;;;7.80;;
4698;SDS011;33708;49.466;11.176;2024-02-14T04:01:09;12.27;;;6.63;;
4698;SDS011;33708;49.466;11.176;2024-02-14T04:03:34;13.00;;;8.37;;
4698;SDS011;33708;49.466;11.176;2024-02-14T04:06:00;17.20;;;8.97;;
4698;SDS011;33708;49.466;11.176;2024-02-14T04:08:26;13.67;;;7.70;;
4698;SDS011;33708;49.466;11.176;2024-02-14T04:10:52;13.27;;;7.40;;
4698;SDS011;33708;49.466;11.176;2024-02-14T04:13:21;16.13;;;7.13;;
4698;SDS011;33708;49.466;11.176;2024-02-14T04:15:47;13.13;;;7.87;;
4698;SDS011;33708;49.466;11.176;2024-02-14T04:18:13;13.67;;;8.20;;
4698;SDS011;33708;49.466;11.176;2024-02-14T04:20:43;13.20;;;8.30;;
4698;SDS011;33708;49.466;11.176;2024-02-14T04:23:09;15.37;;;7.33;;
4698;SDS011;33708;49.466;11.176;2024-02-14T04:25:35;13.43;;;8.93;;
4698;SDS011;33708;49.466;11.176;2024-02-14T04:28:02;15.50;;;7.40;;
4698;SDS011;33708;49.466;11.176;2024-02-14T04:30:28;15.17;;;7.90;;
4698;SDS011;33708;49.466;11.176;2024-02-14T04:32:54;19.43;;;10.33;;
4698;SDS011;33708;49.466;11.176;2024-02-14T04:35:20;19.60;;;13.63;;
4698;SDS011;33708;49.466;11.176;2024-02-14T04:37:45;14.53;;;9.10;;
4698;SDS011;33708;49.466;11.176;2024-02-14T04:40:13;14.50;;;9.70;;
4698;SDS011;33708;49.466;11.176;2024-02-14T04:42:39;19.43;;;8.70;;
4698;SDS011;33708;49.466;11.176;2024-02-14T04:45:05;16.53;;;7.50;;
4698;SDS011;33708;49.466;11.176;2024-02-14T04:47:31;12.67;;;6.90;;
4698;SDS011;33708;49.466;11.176;2024-02-14T04:49:57;11.80;;;7.20;;
4698;SDS011;33708;49.466;11.176;2024-02-14T04:52:24;13.37;;;7.37;;
4698;SDS011;33708;49.466;11.176;2024-02-14T04:54:50;12.97;;;6.90;;
4698;SDS011;33708;49.466;11.176;2024-02-14T04:57:16;11.17;;;6.43;;
4698;SDS011;33708;49.466;11.176;2024-02-14T04:59:43;9.00;;;6.03;;
4698;SDS011;33708;49.466;11.176;2024-02-14T05:02:09;9.00;;;5.07;;
4698;SDS011;33708;49.466;11.176;2024-02-14T05:04:35;12.10;;;6.27;;
4698;SDS011;33708;49.466;11.176;2024-02-14T05:07:03;21.30;;;6.77;;
4698;SDS011;33708;49.466;11.176;2024-02-14T05:09:29;12.60;;;7.27;;
4698;SDS011;33708;49.466;11.176;2024-02-14T05:11:54;10.33;;;6.60;;
4698;SDS011;33708;49.466;11.176;2024-02-14T05:14:20;10.20;;;6.30;;
4698;SDS011;33708;49.466;11.176;2024-02-14T05:16:46;11.77;;;6.60;;
4698;SDS011;33708;49.466;11.176;2024-02-14T05:19:11;8.40;;;6.10;;
4698;SDS011;33708;49.466;11.176;2024-02-14T05:21:37;11.70;;;6.43;;
4698;SDS011;33708;49.466;11.176;2024-02-14T05:24:03;9.50;;;5.60;;
4698;SDS011;33708;49.466;11.176;2024-02-14T05:26:30;21.40;;;6.77;;
4698;SDS011;33708;49.466;11.176;2024-02-14T05:28:55;13.93;;;7.10;;
4698;SDS011;33708;49.466;11.176;2024-02-14T05:31:21;14.73;;;7.20;;
4698;SDS011;33708;49.466;11.176;2024-02-14T05:33:47;9.37;;;6.30;;
4698;SDS011;33708;49.466;11.176;2024-02-14T05:36:12;12.77;;;6.77;;
4698;SDS011;33708;49.466;11.176;2024-02-14T05:38:38;11.00;;;6.60;;
4698;SDS011;33708;49.466;11.176;2024-02-14T05:41:03;6.83;;;5.07;;
4698;SDS011;33708;49.466;11.176;2024-02-14T05:43:29;11.47;;;6.20;;
4698;SDS011;33708;49.466;11.176;2024-02-14T05:45:55;8.40;;;4.80;;
4698;SDS011;33708;49.466;11.176;2024-02-14T05:48:20;10.07;;;6.03;;
4698;SDS011;33708;49.466;11.176;2024-02-14T05:50:46;12.73;;;6.00;;
4698;SDS011;33708;49.466;11.176;2024-02-14T05:53:12;12.07;;;6.30;;
4698;SDS011;33708;49.466;11.176;2024-02-14T05:55:37;10.40;;;5.90;;
4698;SDS011;33708;49.466;11.176;2024-02-14T05:58:03;12.40;;;6.70;;
4698;SDS011;33708;49.466;11.176;2024-02-14T06:00:29;18.83;;;7.07;;
4698;SDS011;33708;49.466;11.176;2024-02-14T06:02:55;11.33;;;5.70;;
4698;SDS011;33708;49.466;11.176;2024-02-14T06:05:21;10.03;;;5.77;;
4698;SDS011;33708;49.466;11.176;2024-02-14T06:07:47;14.40;;;7.00;;
4698;SDS011;33708;49.466;11.176;2024-02-14T06:10:13;14.00;;;7.53;;
4698;SDS011;33708;49.466;11.176;2024-02-14T06:12:38;14.33;;;6.73;;
4698;SDS011;33708;49.466;11.176;2024-02-14T06:15:08;11.37;;;5.50;;
4698;SDS011;33708;49.466;11.176;2024-02-14T06:17:34;12.10;;;6.40;;
4698;SDS011;33708;49.466;11.176;2024-02-14T06:19:59;10.67;;;7.57;;
4698;SDS011;33708;49.466;11.176;2024-02-14T06:22:30;15.10;;;8.00;;
4698;SDS011;33708;49.466;11.176;2024-02-14T06:24:58;10.17;;;6.60;;
4698;SDS011;33708;49.466;11.176;2024-02-14T06:27:25;17.33;;;7.03;;
4698;SDS011;33708;49.466;11.176;2024-02-14T06:29:50;22.93;;;8.17;;
4698;SDS011;33708;49.466;11.176;2024-02-14T06:32:18;13.33;;;6.33;;
4698;SDS011;33708;49.466;11.176;2024-02-14T06:34:44;14.27;;;8.27;;
4698;SDS011;33708;49.466;11.176;2024-02-14T06:37:09;13.43;;;6.63;;
4698;SDS011;33708;49.466;11.176;2024-02-14T06:39:35;14.60;;;8.10;;
4698;SDS011;33708;49.466;11.176;2024-02-14T06:42:00;16.90;;;10.27;;
4698;SDS011;33708;49.466;11.176;2024-02-14T06:44:26;12.93;;;9.03;;
4698;SDS011;33708;49.466;11.176;2024-02-14T06:46:52;16.73;;;9.23;;
4698;SDS011;33708;49.466;11.176;2024-02-14T06:49:17;11.00;;;8.33;;
4698;SDS011;33708;49.466;11.176;2024-02-14T06:51:43;14.13;;;7.27;;
4698;SDS011;33708;49.466;11.176;2024-02-14T06:54:09;12.10;;;7.60;;
4698;SDS011;33708;49.466;11.176;2024-02-14T06:56:37;13.10;;;7.80;;
4698;SDS011;33708;49.466;11.176;2024-02-14T06:59:03;9.87;;;6.37;;
4698;SDS011;33708;49.466;11.176;2024-02-14T07:01:29;12.47;;;7.50;;
4698;SDS011;33708;49.466;11.176;2024-02-14T07:03:55;8.60;;;6.40;;
4698;SDS011;33708;49.466;11.176;2024-02-14T07:06:20;10.80;;;7.20;;
4698;SDS011;33708;49.466;11.176;2024-02-14T07:08:46;15.30;;;8.30;;
4698;SDS011;33708;49.466;11.176;2024-02-14T07:11:15;20.77;;;8.47;;
4698;SDS011;33708;49.466;11.176;2024-02-14T07:13:41;12.17;;;8.03;;
4698;SDS011;33708;49.466;11.176;2024-02-14T07:16:07;12.17;;;6.90;;
4698;SDS011;33708;49.466;11.176;2024-02-14T07:18:36;13.90;;;7.77;;
4698;SDS011;33708;49.466;11.176;2024-02-14T07:21:01;14.13;;;8.00;;
4698;SDS011;33708;49.466;11.176;2024-02-14T07:23:29;19.17;;;8.07;;
4698;SDS011;33708;49.466;11.176;2024-02-14T07:25:54;10.17;;;7.17;;
4698;SDS011;33708;49.466;11.176;2024-02-14T07:28:20;12.70;;;6.83;;
4698;SDS011;33708;49.466;11.176;2024-02-14T07:30:45;10.47;;;7.23;;
4698;SDS011;33708;49.466;11.176;2024-02-14T07:33:11;13.90;;;5.87;;
4698;SDS011;33708;49.466;11.176;2024-02-14T07:35:37;14.70;;;5.87;;
4698;SDS011;33708;49.466;11.176;2024-02-14T07:38:03;11.83;;;6.10;;
4698;SDS011;33708;49.466;11.176;2024-02-14T07:40:29;10.90;;;6.50;;
4698;SDS011;33708;49.466;11.176;2024-02-14T07:42:59;15.47;;;7.10;;
4698;SDS011;33708;49.466;11.176;2024-02-14T07:45:25;12.87;;;5.87;;
4698;SDS011;33708;49.466;11.176;2024-02-14T07:47:51;13.37;;;5.63;;
4698;SDS011;33708;49.466;11.176;2024-02-14T07:50:16;10.50;;;6.73;;
4698;SDS011;33708;49.466;11.176;2024-02-14T07:52:46;9.30;;;5.73;;
4698;SDS011;33708;49.466;11.176;2024-02-14T07:55:12;12.20;;;6.30;;
4698;SDS011;33708;49.466;11.176;2024-02-14T07:57:41;11.50;;;5.07;;
4698;SDS011;33708;49.466;11.176;2024-02-14T08:00:07;12.57;;;5.10;;
4698;SDS011;33708;49.466;11.176;2024-02-14T08:02:35;11.50;;;5.20;;
4698;SDS011;33708;49.466;11.176;2024-02-14T08:05:01;14.23;;;5.47;;
4698;SDS011;33708;49.466;11.176;2024-02-14T08:07:27;9.50;;;5.30;;
4698;SDS011;33708;49.466;11.176;2024-02-14T08:09:52;9.70;;;5.80;;
4698;SDS011;33708;49.466;11.176;2024-02-14T08:12:20;12.90;;;4.87;;
4698;SDS011;33708;49.466;11.176;2024-02-14T08:14:46;9.93;;;5.30;;
4698;SDS011;33708;49.466;11.176;2024-02-14T08:17:12;10.63;;;5.20;;
4698;SDS011;33708;49.466;11.176;2024-02-14T08:19:38;10.40;;;4.80;;
4698;SDS011;33708;49.466;11.176;2024-02-14T08:22:04;9.77;;;4.60;;
4698;SDS011;33708;49.466;11.176;2024-02-14T08:24:30;9.90;;;4.10;;
4698;SDS011;33708;49.466;11.176;2024-02-14T08:26:56;13.33;;;4.07;;
4698;SDS011;33708;49.466;11.176;2024-02-14T08:29:22;14.13;;;3.90;;
4698;SDS011;33708;49.466;11.176;2024-02-14T08:31:48;7.20;;;3.53;;
4698;SDS011;33708;49.466;11.176;2024-02-14T08:34:14;9.10;;;3.73;;
4698;SDS011;33708;49.466;11.176;2024-02-14T08:36:41;6.67;;;3.20;;
4698;SDS011;33708;49.466;11.176;2024-02-14T08:39:07;7.07;;;3.70;;
4698;SDS011;33708;49.466;11.176;2024-02-14T08:41:35;13.43;;;3.27;;
4698;SDS011;33708;49.466;11.176;2024-02-14T08:44:08;9.43;;;4.10;;
4698;SDS011;33708;49.466;11.176;2024-02-14T08:46:34;8.53;;;3.90;;
4698;SDS011;33708;49.466;11.176;2024-02-14T08:49:00;7.63;;;3.60;;
4698;SDS011;33708;49.466;11.176;2024-02-14T08:51:27;8.30;;;4.03;;
4698;SDS011;33708;49.466;11.176;2024-02-14T08:53:53;11.23;;;3.67;;
4698;SDS011;33708;49.466;11.176;2024-02-14T08:56:20;13.23;;;4.33;;
4698;SDS011;33708;49.466;11.176;2024-02-14T08:58:47;10.87;;;3.70;;
4698;SDS011;33708;49.466;11.176;2024-02-14T09:01:16;7.87;;;3.50;;
4698;SDS011;33708;49.466;11.176;2024-02-14T09:03:42;7.73;;;4.47;;
4698;SDS011;33708;49.466;11.176;2024-02-14T09:06:14;20.23;;;4.60;;
4698;SDS011;33708;49.466;11.176;2024-02-14T09:08:43;12.00;;;4.03;;
4698;SDS011;33708;49.466;11.176;2024-02-14T09:11:09;7.60;;;3.47;;
4698;SDS011;33708;49.466;11.176;2024-02-14T09:13:34;8.37;;;3.80;;
4698;SDS011;33708;49.466;11.176;2024-02-14T09:16:00;9.43;;;4.03;;
4698;SDS011;33708;49.466;11.176;2024-02-14T09:18:26;9.03;;;3.50;;
4698;SDS011;33708;49.466;11.176;2024-02-14T09:20:52;10.70;;;4.73;;
4698;SDS011;33708;49.466;11.176;2024-02-14T09:23:17;8.10;;;4.00;;
4698;SDS011;33708;49.466;11.176;2024-02-14T09:25:47;8.17;;;3.40;;
4698;SDS011;33708;49.466;11.176;2024-02-14T09:28:15;12.10;;;4.23;;
4698;SDS011;33708;49.466;11.176;2024-02-14T09:30:41;9.00;;;3.20;;
4698;SDS011;33708;49.466;11.176;2024-02-14T09:33:07;10.00;;;4.07;;
4698;SDS011;33708;49.466;11.176;2024-02-14T09:35:32;9.40;;;4.30;;
4698;SDS011;33708;49.466;11.176;2024-02-14T09:37:58;8.37;;;3.80;;
4698;SDS011;33708;49.466;11.176;2024-02-14T09:40:25;7.07;;;3.87;;
4698;SDS011;33708;49.466;11.176;2024-02-14T09:42:54;8.47;;;4.40;;
4698;SDS011;33708;49.466;11.176;2024-02-14T09:45:23;10.80;;;4.30;;
4698;SDS011;33708;49.466;11.176;2024-02-14T09:47:51;11.17;;;4.87;;
4698;SDS011;33708;49.466;11.176;2024-02-14T09:50:17;12.17;;;4.33;;
4698;SDS011;33708;49.466;11.176;2024-02-14T09:52:45;12.93;;;4.17;;
4698;SDS011;33708;49.466;11.176;2024-02-14T09:55:15;8.60;;;4.17;;
4698;SDS011;33708;49.466;11.176;2024-02-14T09:57:42;6.73;;;4.23;;
4698;SDS011;33708;49.466;11.176;2024-02-14T10:00:11;10.77;;;4.90;;
4698;SDS011;33708;49.466;11.176;2024-02-14T10:02:39;8.43;;;3.73;;
4698;SDS011;33708;49.466;11.176;2024-02-14T10:05:05;10.20;;;3.97;;
4698;SDS011;33708;49.466;11.176;2024-02-14T10:07:39;9.30;;;3.83;;
4698;SDS011;33708;49.466;11.176;2024-02-14T10:10:09;10.07;;;4.10;;
4698;SDS011;33708;49.466;11.176;2024-02-14T10:12:35;10.07;;;4.10;;
4698;SDS011;33708;49.466;11.176;2024-02-14T10:15:01;7.00;;;3.57;;
4698;SDS011;33708;49.466;11.176;2024-02-14T10:17:27;8.07;;;4.17;;
4698;SDS011;33708;49.466;11.176;2024-02-14T10:22:23;7.63;;;3.20;;
4698;SDS011;33708;49.466;11.176;2024-02-14T10:24:50;6.00;;;3.37;;
4698;SDS011;33708;49.466;11.176;2024-02-14T10:27:16;10.13;;;3.90;;
4698;SDS011;33708;49.466;11.176;2024-02-14T10:29:42;8.93;;;3.40;;
4698;SDS011;33708;49.466;11.176;2024-02-14T10:32:09;8.07;;;3.67;;
4698;SDS011;33708;49.466;11.176;2024-02-14T10:34:35;6.57;;;3.23;;
4698;SDS011;33708;49.466;11.176;2024-02-14T10:37:02;8.70;;;3.53;;
4698;SDS011;33708;49.466;11.176;2024-02-14T10:39:31;7.90;;;3.07;;
4698;SDS011;33708;49.466;11.176;2024-02-14T10:42:00;11.03;;;4.00;;
4698;SDS011;33708;49.466;11.176;2024-02-14T10:44:26;8.67;;;3.57;;
4698;SDS011;33708;49.466;11.176;2024-02-14T10:46:52;9.53;;;3.70;;
4698;SDS011;33708;49.466;11.176;2024-02-14T10:49:20;11.23;;;4.07;;
4698;SDS011;33708;49.466;11.176;2024-02-14T10:51:49;8.57;;;4.10;;
4698;SDS011;33708;49.466;11.176;2024-02-14T10:54:18;12.03;;;3.83;;
4698;SDS011;33708;49.466;11.176;2024-02-14T10:56:47;5.90;;;3.30;;
4698;SDS011;33708;49.466;11.176;2024-02-14T10:59:17;7.57;;;3.57;;
4698;SDS011;33708;49.466;11.176;2024-02-14T11:01:44;8.43;;;3.10;;
4698;SDS011;33708;49.466;11.176;2024-02-14T11:04:11;8.80;;;3.43;;
4698;SDS011;33708;49.466;11.176;2024-02-14T11:06:46;8.80;;;3.97;;
4698;SDS011;33708;49.466;11.176;2024-02-14T11:09:13;7.70;;;3.63;;
4698;SDS011;33708;49.466;11.176;2024-02-14T11:11:40;11.27;;;3.60;;
4698;SDS011;33708;49.466;11.176;2024-02-14T11:14:08;9.80;;;3.70;;
4698;SDS011;33708;49.466;11.176;2024-02-14T11:16:33;8.27;;;2.87;;
4698;SDS011;33708;49.466;11.176;2024-02-14T11:19:10;8.90;;;3.20;;
4698;SDS011;33708;49.466;11.176;2024-02-14T11:21:41;12.40;;;3.10;;
4698;SDS011;33708;49.466;11.176;2024-02-14T11:24:09;9.93;;;3.17;;
4698;SDS011;33708;49.466;11.176;2024-02-14T11:26:48;12.83;;;3.67;;
4698;SDS011;33708;49.466;11.176;2024-02-14T11:29:16;7.00;;;3.17;;
4698;SDS011;33708;49.466;11.176;2024-02-14T11:31:42;10.67;;;3.37;;
4698;SDS011;33708;49.466;11.176;2024-02-14T11:34:11;7.00;;;3.10;;
4698;SDS011;33708;49.466;11.176;2024-02-14T11:36:38;10.50;;;3.40;;
4698;SDS011;33708;49.466;11.176;2024-02-14T11:39:11;6.17;;;2.97;;
4698;SDS011;33708;49.466;11.176;2024-02-14T11:41:37;7.87;;;3.43;;
4698;SDS011;33708;49.466;11.176;2024-02-14T11:44:03;6.90;;;2.73;;
4698;SDS011;33708;49.466;11.176;2024-02-14T11:46:38;6.83;;;2.47;;
4698;SDS011;33708;49.466;11.176;2024-02-14T11:49:04;6.37;;;2.57;;
4698;SDS011;33708;49.466;11.176;2024-02-14T11:51:31;8.00;;;3.23;;
4698;SDS011;33708;49.466;11.176;2024-02-14T11:53:58;6.33;;;3.10;;
4698;SDS011;33708;49.466;11.176;2024-02-14T11:56:33;6.47;;;2.87;;
4698;SDS011;33708;49.466;11.176;2024-02-14T11:59:01;5.30;;;2.30;;
4698;SDS011;33708;49.466;11.176;2024-02-14T12:01:28;6.77;;;2.43;;
4698;SDS011;33708;49.466;11.176;2024-02-14T12:03:58;6.13;;;2.73;;
4698;SDS011;33708;49.466;11.176;2024-02-14T12:06:29;6.57;;;2.63;;
4698;SDS011;33708;49.466;11.176;2024-02-14T12:09:01;9.13;;;2.60;;
4698;SDS011;33708;49.466;11.176;2024-02-14T12:11:33;9.10;;;2.50;;
4698;SDS011;33708;49.466;11.176;2024-02-14T12:14:03;5.93;;;2.57;;
4698;SDS011;33708;49.466;11.176;2024-02-14T12:16:36;6.97;;;2.70;;
4698;SDS011;33708;49.466;11.176;2024-02-14T12:19:05;4.50;;;2.00;;
4698;SDS011;33708;49.466;11.176;2024-02-14T12:21:34;5.20;;;2.63;;
4698;SDS011;33708;49.466;11.176;2024-02-14T12:24:00;5.60;;;2.27;;
4698;SDS011;33708;49.466;11.176;2024-02-14T12:26:26;6.73;;;1.97;;
4698;SDS011;33708;49.466;11.176;2024-02-14T12:28:52;8.37;;;2.40;;
4698;SDS011;33708;49.466;11.176;2024-02-14T12:31:22;10.17;;;2.13;;
4698;SDS011;33708;49.466;11.176;2024-02-14T12:33:48;5.90;;;1.70;;
4698;SDS011;33708;49.466;11.176;2024-02-14T12:36:14;5.30;;;2.17;;
4698;SDS011;33708;49.466;11.176;2024-02-14T12:38:39;8.30;;;1.50;;
4698;SDS011;33708;49.466;11.176;2024-02-14T12:41:05;6.10;;;1.73;;
4698;SDS011;33708;49.466;11.176;2024-02-14T12:43:31;6.80;;;1.83;;
4698;SDS011;33708;49.466;11.176;2024-02-14T12:45:56;4.33;;;1.20;;
4698;SDS011;33708;49.466;11.176;2024-02-14T12:48:23;6.50;;;1.93;;
4698;SDS011;33708;49.466;11.176;2024-02-14T12:50:53;4.40;;;1.30;;
4698;SDS011;33708;49.466;11.176;2024-02-14T12:53:19;6.80;;;1.63;;
4698;SDS011;33708;49.466;11.176;2024-02-14T12:55:46;3.80;;;1.43;;
4698;SDS011;33708;49.466;11.176;2024-02-14T12:58:12;6.57;;;1.83;;
4698;SDS011;33708;49.466;11.176;2024-02-14T13:00:37;4.53;;;1.93;;
4698;SDS011;33708;49.466;11.176;2024-02-14T13:03:03;10.37;;;1.87;;
4698;SDS011;33708;49.466;11.176;2024-02-14T13:05:30;4.20;;;1.80;;
4698;SDS011;33708;49.466;11.176;2024-02-14T13:07:55;5.67;;;1.60;;
4698;SDS011;33708;49.466;11.176;2024-02-14T13:10:21;3.23;;;1.10;;
4698;SDS011;33708;49.466;11.176;2024-02-14T13:12:48;3.77;;;1.40;;
4698;SDS011;33708;49.466;11.176;2024-02-14T13:15:14;3.07;;;1.20;;
4698;SDS011;33708;49.466;11.176;2024-02-14T13:17:41;3.77;;;1.37;;
4698;SDS011;33708;49.466;11.176;2024-02-14T13:20:07;5.40;;;1.50;;
4698;SDS011;33708;49.466;11.176;2024-02-14T13:22:33;4.67;;;1.57;;
4698;SDS011;33708;49.466;11.176;2024-02-14T13:24:59;5.47;;;1.60;;
4698;SDS011;33708;49.466;11.176;2024-02-14T13:27:28;4.93;;;1.67;;
4698;SDS011;33708;49.466;11.176;2024-02-14T13:29:53;4.37;;;1.50;;
4698;SDS011;33708;49.466;11.176;2024-02-14T13:32:19;4.90;;;1.60;;
4698;SDS011;33708;49.466;11.176;2024-02-14T13:34:44;4.50;;;1.30;;
4698;SDS011;33708;49.466;11.176;2024-02-14T13:37:10;5.73;;;1.67;;
4698;SDS011;33708;49.466;11.176;2024-02-14T13:39:36;5.63;;;1.70;;
4698;SDS011;33708;49.466;11.176;2024-02-14T13:42:02;8.37;;;3.90;;
4698;SDS011;33708;49.466;11.176;2024-02-14T13:44:27;18.83;;;9.13;;
4698;SDS011;33708;49.466;11.176;2024-02-14T13:46:54;9.90;;;4.57;;
4698;SDS011;33708;49.466;11.176;2024-02-14T13:49:20;4.80;;;1.90;;
4698;SDS011;33708;49.466;11.176;2024-02-14T13:51:52;6.23;;;1.60;;
4698;SDS011;33708;49.466;11.176;2024-02-14T13:54:18;4.40;;;2.07;;
4698;SDS011;33708;49.466;11.176;2024-02-14T13:56:44;6.23;;;1.70;;
4698;SDS011;33708;49.466;11.176;2024-02-14T13:59:10;6.97;;;2.10;;
4698;SDS011;33708;49.466;11.176;2024-02-14T14:01:36;6.30;;;1.63;;
4698;SDS011;33708;49.466;11.176;2024-02-14T14:04:02;9.00;;;2.07;;
4698;SDS011;33708;49.466;11.176;2024-02-14T14:06:28;3.03;;;1.27;;
4698;SDS011;33708;49.466;11.176;2024-02-14T14:08:54;3.00;;;1.20;;
4698;SDS011;33708;49.466;11.176;2024-02-14T14:11:20;4.40;;;1.50;;
4698;SDS011;33708;49.466;11.176;2024-02-14T14:13:46;8.37;;;1.53;;
4698;SDS011;33708;49.466;11.176;2024-02-14T14:16:11;4.63;;;1.50;;
4698;SDS011;33708;49.466;11.176;2024-02-14T14:18:37;5.80;;;1.60;;
4698;SDS011;33708;49.466;11.176;2024-02-14T14:21:03;5.27;;;2.47;;
4698;SDS011;33708;49.466;11.176;2024-02-14T14:23:30;5.20;;;1.87;;
4698;SDS011;33708;49.466;11.176;2024-02-14T14:25:55;7.87;;;1.80;;
4698;SDS011;33708;49.466;11.176;2024-02-14T14:28:21;4.47;;;1.70;;
4698;SDS011;33708;49.466;11.176;2024-02-14T14:30:52;5.37;;;1.70;;
4698;SDS011;33708;49.466;11.176;2024-02-14T14:33:19;5.80;;;1.73;;
4698;SDS011;33708;49.466;11.176;2024-02-14T14:35:45;4.97;;;2.00;;
4698;SDS011;33708;49.466;11.176;2024-02-14T14:38:11;13.50;;;2.00;;